createdAt,value
2022-12-17T00:02:04.654Z,32.17
2022-12-17T00:07:18.324Z,38.83
2022-12-17T00:12:39.424Z,34.07
2022-12-17T00:17:51.805Z,35.78
2022-12-17T00:23:23.613Z,27.10
2022-12-17T00:28:56.040Z,27.03
2022-12-17T00:34:23.965Z,25.23
2022-12-17T00:39:40.184Z,25.03
2022-12-17T00:44:54.796Z,27.67
2022-12-17T00:50:04.945Z,37.73
2022-12-17T00:55:15.548Z,29.90
2022-12-17T01:00:28.257Z,25.30
2022-12-17T01:05:43.506Z,25.37
2022-12-17T01:11:12.414Z,24.37
2022-12-17T01:16:41.723Z,24.47
2022-12-17T01:22:08.402Z,25.70
2022-12-17T01:27:58.273Z,25.20
2022-12-17T01:33:27.224Z,25.67
2022-12-17T01:38:49.425Z,27.20
2022-12-17T01:44:00.425Z,25.90
2022-12-17T01:49:23.303Z,26.65
2022-12-17T01:54:38.127Z,25.07
2022-12-17T01:59:56.279Z,25.57
2022-12-17T02:05:07.056Z,23.40
2022-12-17T02:10:56.472Z,28.63
2022-12-17T02:16:32.596Z,20.27
2022-12-17T02:21:56.154Z,19.20
2022-12-17T02:27:42.743Z,20.37
2022-12-17T02:38:52.756Z,22.53
2022-12-17T02:44:06.206Z,22.40
2022-12-17T02:49:17.491Z,21.73
2022-12-17T02:54:41.076Z,21.97
2022-12-17T02:59:53.775Z,21.17
2022-12-17T03:05:27.519Z,21.33
2022-12-17T03:10:39.590Z,21.52
2022-12-17T03:16:12.302Z,22.97
2022-12-17T03:21:49.772Z,33.70
2022-12-17T03:27:14.824Z,24.77
2022-12-17T03:46:43.270Z,20.03
2022-12-17T04:04:46.195Z,19.00
2022-12-17T04:09:59.512Z,20.53
2022-12-17T04:15:15.428Z,21.47
2022-12-17T04:20:35.834Z,26.27
2022-12-17T04:25:46.615Z,29.13
2022-12-17T04:31:01.990Z,35.22
2022-12-17T04:36:22.646Z,24.90
2022-12-17T04:41:38.958Z,27.13
2022-12-17T04:47:23.831Z,28.83
2022-12-17T04:52:37.895Z,24.03
2022-12-17T04:57:51.775Z,21.77
2022-12-17T05:03:07.128Z,20.47
2022-12-17T05:08:24.503Z,18.50
2022-12-17T05:13:36.813Z,17.37
2022-12-17T05:18:56.025Z,16.83
2022-12-17T05:24:19.790Z,17.00
2022-12-17T05:29:31.498Z,16.07
2022-12-17T05:34:45.078Z,18.20
2022-12-17T05:39:55.748Z,23.07
2022-12-17T05:45:09.000Z,20.27
2022-12-17T05:50:21.728Z,18.03
2022-12-17T05:55:38.555Z,20.67
2022-12-17T06:00:51.846Z,20.13
2022-12-17T06:06:04.296Z,32.90
2022-12-17T06:11:18.086Z,26.27
2022-12-17T06:16:42.058Z,35.03
2022-12-17T06:21:54.689Z,30.53
2022-12-17T06:27:05.713Z,30.93
2022-12-17T06:32:21.919Z,30.23
2022-12-17T06:37:34.064Z,33.47
2022-12-17T06:42:44.842Z,27.50
2022-12-17T06:47:56.300Z,32.53
2022-12-17T06:53:17.491Z,33.17
2022-12-17T06:58:31.480Z,23.42
2022-12-17T07:03:42.557Z,23.73
2022-12-17T07:08:54.354Z,26.70
2022-12-17T07:14:04.788Z,32.90
2022-12-17T07:19:15.422Z,38.25
2022-12-17T07:24:29.068Z,50.43
2022-12-17T07:29:39.851Z,95.23
2022-12-17T07:34:50.739Z,46.80
2022-12-17T07:40:04.996Z,34.78
2022-12-17T07:45:15.757Z,25.37
2022-12-17T07:50:26.618Z,30.80
2022-12-17T07:55:50.062Z,25.85
2022-12-17T08:01:00.872Z,18.90
2022-12-17T08:06:11.428Z,17.15
2022-12-17T08:11:23.597Z,16.92
2022-12-17T08:16:34.207Z,18.80
2022-12-17T08:21:47.683Z,16.67
2022-12-17T08:26:59.811Z,20.90
2022-12-17T08:32:12.022Z,19.53
2022-12-17T08:37:23.070Z,25.17
2022-12-17T08:47:46.555Z,27.70
2022-12-17T08:52:58.758Z,35.33
2022-12-17T08:58:31.807Z,34.47
2022-12-17T09:03:42.819Z,34.17
2022-12-17T09:09:00.680Z,30.08
2022-12-17T09:14:20.191Z,26.13
2022-12-17T09:19:31.655Z,29.15
2022-12-17T09:24:42.204Z,24.20
2022-12-17T09:29:56.558Z,23.73
2022-12-17T09:35:07.857Z,22.65
2022-12-17T09:40:20.028Z,25.35
2022-12-17T09:45:37.117Z,22.88
2022-12-17T09:50:50.536Z,24.60
2022-12-17T09:56:06.246Z,23.88
2022-12-17T10:01:21.214Z,22.35
2022-12-17T10:06:36.725Z,24.65
2022-12-17T10:11:49.552Z,21.08
2022-12-17T10:17:08.544Z,24.50
2022-12-17T10:22:27.733Z,24.40
2022-12-17T10:27:38.844Z,33.78
2022-12-17T10:43:11.741Z,21.90
2022-12-17T10:48:35.648Z,20.63
2022-12-17T10:53:46.077Z,22.50
2022-12-17T10:59:03.628Z,27.50
2022-12-17T11:04:17.217Z,22.00
2022-12-17T11:09:37.119Z,24.23
2022-12-17T11:14:49.132Z,21.33
2022-12-17T11:20:07.370Z,17.27
2022-12-17T11:25:24.891Z,14.23
2022-12-17T11:30:36.426Z,14.45
2022-12-17T11:35:57.845Z,14.68
2022-12-17T11:41:13.333Z,13.93
2022-12-17T11:46:35.692Z,16.60
2022-12-17T11:51:52.168Z,15.48
2022-12-17T11:57:08.946Z,15.45
2022-12-17T12:02:34.493Z,13.90
2022-12-17T12:07:56.781Z,14.60
2022-12-17T12:13:19.640Z,14.05
2022-12-17T12:18:42.115Z,12.93
2022-12-17T12:24:10.989Z,12.85
2022-12-17T12:29:34.186Z,11.07
2022-12-17T12:34:49.491Z,12.43
2022-12-17T12:40:10.259Z,12.05
2022-12-17T12:45:25.716Z,10.15
2022-12-17T12:50:41.402Z,10.93
2022-12-17T12:55:57.612Z,11.27
2022-12-17T13:01:13.337Z,12.50
2022-12-17T13:06:07.038Z,10.65
2022-12-17T13:11:12.132Z,10.45
2022-12-17T13:16:27.022Z,12.68
2022-12-17T13:21:29.692Z,13.43
2022-12-17T13:26:32.102Z,14.88
2022-12-17T13:31:28.889Z,13.18
2022-12-17T13:36:30.793Z,12.82
2022-12-17T13:41:31.238Z,10.93
2022-12-17T13:51:20.656Z,12.30
2022-12-17T13:56:13.984Z,8.40
2022-12-17T14:01:15.166Z,10.60
2022-12-17T14:06:11.583Z,12.85
2022-12-17T14:11:22.384Z,15.40
2022-12-17T14:21:12.008Z,15.98
2022-12-17T14:26:05.335Z,17.92
2022-12-17T14:36:23.884Z,13.20
2022-12-17T14:41:34.621Z,16.77
2022-12-17T14:51:29.110Z,31.92
2022-12-17T14:56:24.789Z,32.17
2022-12-17T15:01:18.503Z,22.73
2022-12-17T15:06:16.643Z,13.82
2022-12-17T15:11:16.089Z,11.15
2022-12-17T15:16:18.971Z,15.23
2022-12-17T15:21:26.649Z,21.60
2022-12-17T15:26:41.030Z,19.73
2022-12-17T15:31:58.002Z,16.23
2022-12-17T15:36:51.595Z,19.05
2022-12-17T15:42:03.740Z,16.15
2022-12-17T15:47:05.598Z,19.13
2022-12-17T15:52:00.140Z,14.43
2022-12-17T15:56:56.388Z,14.73
2022-12-17T16:01:51.049Z,20.48
2022-12-17T16:06:44.651Z,20.15
2022-12-17T16:11:37.825Z,18.13
2022-12-17T16:16:55.439Z,16.73
2022-12-17T16:21:49.775Z,19.30
2022-12-17T16:26:45.269Z,26.85
2022-12-17T16:31:41.188Z,19.98
2022-12-17T16:36:34.672Z,19.30
2022-12-17T16:41:30.942Z,19.92
2022-12-17T16:46:30.077Z,20.52
2022-12-17T16:51:30.494Z,26.63
2022-12-17T17:01:21.045Z,22.00
2022-12-17T17:06:14.724Z,25.48
2022-12-17T17:11:14.527Z,25.75
2022-12-17T17:16:09.891Z,23.08
2022-12-17T17:21:26.155Z,22.85
2022-12-17T17:26:21.135Z,24.88
2022-12-17T17:31:16.382Z,22.27
2022-12-17T17:36:12.226Z,20.67
2022-12-17T17:41:10.836Z,20.85
2022-12-17T17:46:10.258Z,18.58
2022-12-17T17:51:06.361Z,18.95
2022-12-17T17:56:04.274Z,18.67
2022-12-17T18:00:57.905Z,21.27
2022-12-17T18:05:57.813Z,25.10
2022-12-17T18:11:21.599Z,19.20
2022-12-17T18:16:21.688Z,20.58
2022-12-17T18:21:18.222Z,18.98
2022-12-17T18:26:21.447Z,21.25
2022-12-17T18:31:17.071Z,21.40
2022-12-17T18:36:15.379Z,21.08
2022-12-17T18:41:30.077Z,17.85
2022-12-17T18:46:23.722Z,15.93
2022-12-17T18:51:17.162Z,15.93
2022-12-17T18:56:16.661Z,15.40
2022-12-17T19:01:25.017Z,15.32
2022-12-17T19:06:20.081Z,13.50
2022-12-17T19:11:17.084Z,11.95
2022-12-17T19:16:12.653Z,13.13
2022-12-17T19:21:12.194Z,11.73
2022-12-17T19:26:08.635Z,13.57
2022-12-17T19:31:03.339Z,14.25
2022-12-17T19:36:05.137Z,12.02
2022-12-17T19:41:06.015Z,12.68
2022-12-17T19:46:11.904Z,12.30
2022-12-17T19:51:10.572Z,13.25
2022-12-17T19:56:14.065Z,11.93
2022-12-17T20:01:10.149Z,13.48
2022-12-17T20:06:03.941Z,13.13
2022-12-17T20:10:57.895Z,11.35
2022-12-17T20:16:19.502Z,10.13
2022-12-17T20:21:20.083Z,11.15
2022-12-17T20:26:20.619Z,10.45
2022-12-17T20:31:18.232Z,11.15
2022-12-17T20:36:19.925Z,9.77
2022-12-17T20:41:14.736Z,9.73
2022-12-17T20:46:13.746Z,9.45
2022-12-17T20:51:13.832Z,8.70
2022-12-17T20:56:09.473Z,9.30
2022-12-17T21:01:11.860Z,8.43
2022-12-17T21:06:12.555Z,10.57
2022-12-17T21:11:12.004Z,10.35
2022-12-17T21:16:08.066Z,10.03
2022-12-17T21:21:03.843Z,11.52
2022-12-17T21:26:04.041Z,10.40
2022-12-17T21:31:02.454Z,11.77
2022-12-17T21:36:07.845Z,11.25
2022-12-17T21:41:15.454Z,7.93
2022-12-17T21:46:12.651Z,8.13
2022-12-17T21:51:07.378Z,8.80
2022-12-17T21:56:05.877Z,8.38
2022-12-17T22:01:10.906Z,9.55
2022-12-17T22:06:14.306Z,10.68
2022-12-17T22:11:11.760Z,8.93
2022-12-17T22:16:09.249Z,9.32
2022-12-17T22:21:05.150Z,8.73
2022-12-17T22:25:58.420Z,9.55
2022-12-17T22:31:22.180Z,10.07
2022-12-17T22:39:01.541Z,10.65
2022-12-17T22:44:36.378Z,10.68
2022-12-17T22:47:02.227Z,11.18
2022-12-17T22:51:56.955Z,10.70
2022-12-17T22:57:35.033Z,10.55
2022-12-17T23:02:03.568Z,11.77
2022-12-17T23:06:58.344Z,11.55
2022-12-17T23:11:51.823Z,12.93
2022-12-17T23:16:45.810Z,14.07
2022-12-17T23:21:39.524Z,14.68
2022-12-17T23:26:36.761Z,14.10
2022-12-17T23:31:33.391Z,13.70
2022-12-17T23:36:27.638Z,13.80
2022-12-17T23:41:22.588Z,12.15
2022-12-17T23:46:18.301Z,14.45
2022-12-17T23:51:13.438Z,13.77
2022-12-17T23:56:11.193Z,13.00
